| Date | Time | Temp. (oF) | Dew Point (oF) | Rel. Hum. (%) | Press. (in.) | Wind Dir. | Wind Speed (mph) | Hourly Rainfall (in.) |
|
|---|---|---|---|---|---|---|---|---|---|
| 1 | 04/26 | 00:00 | 54 | 54 | 100 | 29.80 | E | 1 | 0.00 |
| 2 | 04/25 | 23:00 | 54 | 53 | 98 | 29.82 | SSE | 4 | 0.02 |
| 3 | 04/25 | 22:00 | 54 | 52 | 95 | 29.83 | SSE | 2 | 0.02 |
| 4 | 04/25 | 21:00 | 55 | 52 | 90 | 29.84 | SSW | 10 | 0.01 |
| 5 | 04/25 | 20:00 | 59 | 50 | 74 | 29.82 | S | 14 | 0.00 |
| 6 | 04/25 | 19:00 | 64 | 48 | 57 | 29.78 | SSW | 19 | 0.00 |
| 7 | 04/25 | 18:00 | 68 | 49 | 51 | 29.77 | SSW | 10 | 0.00 |
| 8 | 04/25 | 17:00 | 69 | 48 | 49 | 29.76 | SSE | 7 | 0.00 |
| 9 | 04/25 | 16:00 | 70 | 48 | 47 | 29.77 | SSE | 7 | 0.00 |
| 10 | 04/25 | 15:00 | 69 | 46 | 44 | 29.80 | SSW | 5 | 0.00 |
| 11 | 04/25 | 14:00 | 68 | 46 | 47 | 29.83 | SE | 9 | 0.00 |
| 12 | 04/25 | 13:00 | 65 | 42 | 44 | 29.86 | N | 4 | 0.00 |
| 13 | 04/25 | 12:00 | 61 | 39 | 46 | 29.88 | E | 6 | 0.00 |
| 14 | 04/25 | 11:00 | 57 | 35 | 44 | 29.90 | ESE | 4 | 0.00 |
| 15 | 04/25 | 10:00 | 55 | 32 | 43 | 29.92 | ENE | 7 | 0.00 |
| 16 | 04/25 | 09:00 | 51 | 34 | 54 | 29.93 | E | 7 | 0.00 |
| 17 | 04/25 | 08:00 | 41 | 38 | 90 | 29.94 | E | 2 | 0.00 |
| 18 | 04/25 | 07:00 | 40 | 37 | 90 | 29.95 | SSE | 1 | 0.00 |
| 19 | 04/25 | 06:00 | 40 | 37 | 89 | 29.93 | N | 1 | 0.00 |
| 20 | 04/25 | 05:00 | 40 | 36 | 86 | 29.94 | N | 0 | 0.00 |
| 21 | 04/25 | 04:00 | 41 | 35 | 80 | 29.93 | N | 1 | 0.00 |
| 22 | 04/25 | 03:00 | 42 | 34 | 74 | 29.93 | N | 0 | 0.00 |
| 23 | 04/25 | 02:00 | 44 | 34 | 68 | 29.95 | N | 0 | 0.00 |
| 24 | 04/25 | 01:00 | 44 | 32 | 63 | 29.94 | S | 2 | 0.00 |